sensor_id;sensor_type;location;lat;lon;timestamp;P1;durP1;ratioP1;P2;durP2;ratioP2
14817;SDS011;7500;57.698;11.986;2023-04-06T00:02:09;3.37;;;1.73;;
14817;SDS011;7500;57.698;11.986;2023-04-06T00:04:37;1.87;;;1.27;;
14817;SDS011;7500;57.698;11.986;2023-04-06T00:07:04;1.87;;;1.47;;
14817;SDS011;7500;57.698;11.986;2023-04-06T00:09:30;3.60;;;1.40;;
14817;SDS011;7500;57.698;11.986;2023-04-06T00:11:57;1.43;;;1.03;;
14817;SDS011;7500;57.698;11.986;2023-04-06T00:14:23;3.17;;;1.63;;
14817;SDS011;7500;57.698;11.986;2023-04-06T00:16:50;2.17;;;1.60;;
14817;SDS011;7500;57.698;11.986;2023-04-06T00:19:16;1.63;;;1.30;;
14817;SDS011;7500;57.698;11.986;2023-04-06T00:21:44;1.40;;;1.30;;
14817;SDS011;7500;57.698;11.986;2023-04-06T00:24:11;2.33;;;1.30;;
14817;SDS011;7500;57.698;11.986;2023-04-06T00:26:37;1.30;;;1.20;;
14817;SDS011;7500;57.698;11.986;2023-04-06T00:29:04;1.70;;;1.40;;
14817;SDS011;7500;57.698;11.986;2023-04-06T00:31:30;1.87;;;1.03;;
14817;SDS011;7500;57.698;11.986;2023-04-06T00:33:57;1.60;;;1.13;;
14817;SDS011;7500;57.698;11.986;2023-04-06T00:36:24;1.60;;;1.30;;
14817;SDS011;7500;57.698;11.986;2023-04-06T00:38:52;1.23;;;1.07;;
14817;SDS011;7500;57.698;11.986;2023-04-06T00:41:18;3.07;;;1.60;;
14817;SDS011;7500;57.698;11.986;2023-04-06T00:43:45;1.60;;;1.30;;
14817;SDS011;7500;57.698;11.986;2023-04-06T00:46:12;1.73;;;1.30;;
14817;SDS011;7500;57.698;11.986;2023-04-06T00:48:38;2.20;;;1.10;;
14817;SDS011;7500;57.698;11.986;2023-04-06T00:51:05;2.20;;;1.00;;
14817;SDS011;7500;57.698;11.986;2023-04-06T00:53:32;1.27;;;1.13;;
14817;SDS011;7500;57.698;11.986;2023-04-06T00:56:00;3.60;;;1.10;;
14817;SDS011;7500;57.698;11.986;2023-04-06T00:58:26;2.07;;;1.17;;
14817;SDS011;7500;57.698;11.986;2023-04-06T01:00:53;1.97;;;1.17;;
14817;SDS011;7500;57.698;11.986;2023-04-06T01:03:19;1.47;;;1.23;;
14817;SDS011;7500;57.698;11.986;2023-04-06T01:05:46;1.40;;;1.20;;
14817;SDS011;7500;57.698;11.986;2023-04-06T01:08:13;1.40;;;1.30;;
14817;SDS011;7500;57.698;11.986;2023-04-06T01:10:40;2.03;;;1.30;;
14817;SDS011;7500;57.698;11.986;2023-04-06T01:13:09;2.77;;;1.20;;
14817;SDS011;7500;57.698;11.986;2023-04-06T01:15:35;2.07;;;1.20;;
14817;SDS011;7500;57.698;11.986;2023-04-06T01:18:04;2.30;;;1.00;;
14817;SDS011;7500;57.698;11.986;2023-04-06T01:20:32;1.30;;;1.20;;
14817;SDS011;7500;57.698;11.986;2023-04-06T01:22:59;1.20;;;1.10;;
14817;SDS011;7500;57.698;11.986;2023-04-06T01:25:26;1.57;;;1.10;;
14817;SDS011;7500;57.698;11.986;2023-04-06T01:27:53;1.60;;;1.17;;
14817;SDS011;7500;57.698;11.986;2023-04-06T01:30:19;1.70;;;1.40;;
14817;SDS011;7500;57.698;11.986;2023-04-06T01:32:46;1.40;;;1.10;;
14817;SDS011;7500;57.698;11.986;2023-04-06T01:35:12;1.00;;;0.90;;
14817;SDS011;7500;57.698;11.986;2023-04-06T01:37:39;2.27;;;1.40;;
14817;SDS011;7500;57.698;11.986;2023-04-06T01:40:08;1.37;;;1.27;;
14817;SDS011;7500;57.698;11.986;2023-04-06T01:42:35;1.70;;;1.40;;
14817;SDS011;7500;57.698;11.986;2023-04-06T01:45:02;2.20;;;1.10;;
14817;SDS011;7500;57.698;11.986;2023-04-06T01:47:28;1.57;;;1.20;;
14817;SDS011;7500;57.698;11.986;2023-04-06T01:49:56;1.97;;;1.30;;
14817;SDS011;7500;57.698;11.986;2023-04-06T01:52:22;1.07;;;1.07;;
14817;SDS011;7500;57.698;11.986;2023-04-06T01:54:48;1.30;;;1.17;;
14817;SDS011;7500;57.698;11.986;2023-04-06T01:57:17;1.50;;;1.03;;
14817;SDS011;7500;57.698;11.986;2023-04-06T01:59:43;1.73;;;1.10;;
14817;SDS011;7500;57.698;11.986;2023-04-06T02:02:10;1.57;;;1.30;;
14817;SDS011;7500;57.698;11.986;2023-04-06T02:04:38;1.30;;;1.00;;
14817;SDS011;7500;57.698;11.986;2023-04-06T02:07:04;1.47;;;1.07;;
14817;SDS011;7500;57.698;11.986;2023-04-06T02:09:31;1.20;;;1.10;;
14817;SDS011;7500;57.698;11.986;2023-04-06T02:11:57;1.30;;;1.20;;
14817;SDS011;7500;57.698;11.986;2023-04-06T02:14:25;2.40;;;1.13;;
14817;SDS011;7500;57.698;11.986;2023-04-06T02:16:52;2.50;;;1.30;;
14817;SDS011;7500;57.698;11.986;2023-04-06T02:19:19;1.77;;;1.20;;
14817;SDS011;7500;57.698;11.986;2023-04-06T02:21:45;2.63;;;1.07;;
14817;SDS011;7500;57.698;11.986;2023-04-06T02:24:12;2.33;;;1.17;;
14817;SDS011;7500;57.698;11.986;2023-04-06T02:26:38;1.70;;;1.47;;
14817;SDS011;7500;57.698;11.986;2023-04-06T02:29:05;2.40;;;1.33;;
14817;SDS011;7500;57.698;11.986;2023-04-06T02:31:33;0.80;;;0.80;;
14817;SDS011;7500;57.698;11.986;2023-04-06T02:34:00;2.60;;;1.40;;
14817;SDS011;7500;57.698;11.986;2023-04-06T02:36:26;1.63;;;1.23;;
14817;SDS011;7500;57.698;11.986;2023-04-06T02:38:53;1.20;;;1.10;;
14817;SDS011;7500;57.698;11.986;2023-04-06T02:41:19;1.53;;;1.43;;
14817;SDS011;7500;57.698;11.986;2023-04-06T02:43:46;1.87;;;1.20;;
14817;SDS011;7500;57.698;11.986;2023-04-06T02:46:12;2.27;;;1.20;;
14817;SDS011;7500;57.698;11.986;2023-04-06T02:48:40;2.00;;;1.23;;
14817;SDS011;7500;57.698;11.986;2023-04-06T02:51:07;2.00;;;1.23;;
14817;SDS011;7500;57.698;11.986;2023-04-06T02:53:34;1.30;;;1.20;;
14817;SDS011;7500;57.698;11.986;2023-04-06T02:56:00;1.50;;;1.20;;
14817;SDS011;7500;57.698;11.986;2023-04-06T02:58:27;1.30;;;1.20;;
14817;SDS011;7500;57.698;11.986;2023-04-06T03:00:53;2.03;;;1.87;;
14817;SDS011;7500;57.698;11.986;2023-04-06T03:03:20;1.30;;;1.20;;
14817;SDS011;7500;57.698;11.986;2023-04-06T03:05:48;1.57;;;1.07;;
14817;SDS011;7500;57.698;11.986;2023-04-06T03:08:14;2.60;;;1.40;;
14817;SDS011;7500;57.698;11.986;2023-04-06T03:10:41;1.70;;;1.30;;
14817;SDS011;7500;57.698;11.986;2023-04-06T03:13:07;1.50;;;1.23;;
14817;SDS011;7500;57.698;11.986;2023-04-06T03:15:34;1.47;;;1.17;;
14817;SDS011;7500;57.698;11.986;2023-04-06T03:18:01;1.60;;;1.40;;
14817;SDS011;7500;57.698;11.986;2023-04-06T03:20:27;1.40;;;1.10;;
14817;SDS011;7500;57.698;11.986;2023-04-06T03:22:55;1.83;;;1.20;;
14817;SDS011;7500;57.698;11.986;2023-04-06T03:25:22;1.83;;;1.40;;
14817;SDS011;7500;57.698;11.986;2023-04-06T03:27:49;1.87;;;1.20;;
14817;SDS011;7500;57.698;11.986;2023-04-06T03:30:17;2.00;;;1.20;;
14817;SDS011;7500;57.698;11.986;2023-04-06T03:32:44;1.40;;;1.30;;
14817;SDS011;7500;57.698;11.986;2023-04-06T03:35:11;1.07;;;0.93;;
14817;SDS011;7500;57.698;11.986;2023-04-06T03:37:38;1.20;;;1.10;;
14817;SDS011;7500;57.698;11.986;2023-04-06T03:40:06;1.40;;;1.30;;
14817;SDS011;7500;57.698;11.986;2023-04-06T03:42:36;3.17;;;1.30;;
14817;SDS011;7500;57.698;11.986;2023-04-06T03:45:03;1.50;;;1.30;;
14817;SDS011;7500;57.698;11.986;2023-04-06T03:47:30;1.73;;;1.20;;
14817;SDS011;7500;57.698;11.986;2023-04-06T03:49:57;1.43;;;1.33;;
14817;SDS011;7500;57.698;11.986;2023-04-06T03:52:24;2.90;;;1.20;;
14817;SDS011;7500;57.698;11.986;2023-04-06T03:54:51;1.40;;;1.30;;
14817;SDS011;7500;57.698;11.986;2023-04-06T03:57:19;1.80;;;1.40;;
14817;SDS011;7500;57.698;11.986;2023-04-06T03:59:47;1.80;;;1.20;;
14817;SDS011;7500;57.698;11.986;2023-04-06T04:02:14;1.40;;;1.07;;
14817;SDS011;7500;57.698;11.986;2023-04-06T04:04:41;1.30;;;1.20;;
14817;SDS011;7500;57.698;11.986;2023-04-06T04:07:07;1.20;;;1.10;;
14817;SDS011;7500;57.698;11.986;2023-04-06T04:09:34;1.30;;;1.20;;
14817;SDS011;7500;57.698;11.986;2023-04-06T04:12:00;1.50;;;1.40;;
14817;SDS011;7500;57.698;11.986;2023-04-06T04:14:28;1.30;;;1.20;;
14817;SDS011;7500;57.698;11.986;2023-04-06T04:16:55;1.37;;;1.00;;
14817;SDS011;7500;57.698;11.986;2023-04-06T04:19:21;1.60;;;1.30;;
14817;SDS011;7500;57.698;11.986;2023-04-06T04:21:48;1.60;;;1.50;;
14817;SDS011;7500;57.698;11.986;2023-04-06T04:24:14;3.13;;;1.63;;
14817;SDS011;7500;57.698;11.986;2023-04-06T04:26:41;1.63;;;1.23;;
14817;SDS011;7500;57.698;11.986;2023-04-06T04:29:08;1.67;;;1.50;;
14817;SDS011;7500;57.698;11.986;2023-04-06T04:31:36;1.27;;;1.20;;
14817;SDS011;7500;57.698;11.986;2023-04-06T04:34:03;2.03;;;1.60;;
14817;SDS011;7500;57.698;11.986;2023-04-06T04:36:31;2.73;;;1.27;;
14817;SDS011;7500;57.698;11.986;2023-04-06T04:38:58;1.50;;;1.40;;
14817;SDS011;7500;57.698;11.986;2023-04-06T04:41:26;2.83;;;1.57;;
14817;SDS011;7500;57.698;11.986;2023-04-06T04:43:52;2.07;;;1.40;;
14817;SDS011;7500;57.698;11.986;2023-04-06T04:46:19;1.57;;;1.20;;
14817;SDS011;7500;57.698;11.986;2023-04-06T04:48:47;1.30;;;1.20;;
14817;SDS011;7500;57.698;11.986;2023-04-06T04:51:13;1.53;;;1.43;;
14817;SDS011;7500;57.698;11.986;2023-04-06T04:53:40;1.50;;;1.40;;
14817;SDS011;7500;57.698;11.986;2023-04-06T04:56:06;1.80;;;1.60;;
14817;SDS011;7500;57.698;11.986;2023-04-06T04:58:33;3.67;;;1.40;;
14817;SDS011;7500;57.698;11.986;2023-04-06T05:01:00;1.90;;;1.40;;
14817;SDS011;7500;57.698;11.986;2023-04-06T05:03:27;2.60;;;1.40;;
14817;SDS011;7500;57.698;11.986;2023-04-06T05:05:55;1.37;;;1.27;;
14817;SDS011;7500;57.698;11.986;2023-04-06T05:08:22;1.30;;;1.20;;
14817;SDS011;7500;57.698;11.986;2023-04-06T05:10:49;2.03;;;1.50;;
14817;SDS011;7500;57.698;11.986;2023-04-06T05:13:15;1.30;;;1.10;;
14817;SDS011;7500;57.698;11.986;2023-04-06T05:15:42;1.93;;;1.57;;
14817;SDS011;7500;57.698;11.986;2023-04-06T05:18:09;1.10;;;1.00;;
14817;SDS011;7500;57.698;11.986;2023-04-06T05:20:36;1.87;;;1.23;;
14817;SDS011;7500;57.698;11.986;2023-04-06T05:23:04;2.50;;;1.27;;
14817;SDS011;7500;57.698;11.986;2023-04-06T05:25:30;1.43;;;1.33;;
14817;SDS011;7500;57.698;11.986;2023-04-06T05:27:58;1.53;;;1.27;;
14817;SDS011;7500;57.698;11.986;2023-04-06T05:30:24;1.40;;;1.20;;
14817;SDS011;7500;57.698;11.986;2023-04-06T05:32:51;1.90;;;1.30;;
14817;SDS011;7500;57.698;11.986;2023-04-06T05:35:18;1.27;;;1.17;;
14817;SDS011;7500;57.698;11.986;2023-04-06T05:37:45;1.53;;;1.30;;
14817;SDS011;7500;57.698;11.986;2023-04-06T05:40:13;2.03;;;1.10;;
14817;SDS011;7500;57.698;11.986;2023-04-06T05:42:41;2.53;;;1.30;;
14817;SDS011;7500;57.698;11.986;2023-04-06T05:45:08;2.07;;;1.30;;
14817;SDS011;7500;57.698;11.986;2023-04-06T05:47:35;1.70;;;1.43;;
14817;SDS011;7500;57.698;11.986;2023-04-06T05:50:02;1.40;;;1.30;;
14817;SDS011;7500;57.698;11.986;2023-04-06T05:52:29;1.57;;;1.00;;
14817;SDS011;7500;57.698;11.986;2023-04-06T05:54:55;1.50;;;1.40;;
14817;SDS011;7500;57.698;11.986;2023-04-06T05:57:23;1.60;;;1.13;;
14817;SDS011;7500;57.698;11.986;2023-04-06T05:59:50;1.40;;;1.00;;
14817;SDS011;7500;57.698;11.986;2023-04-06T06:02:16;1.30;;;1.20;;
14817;SDS011;7500;57.698;11.986;2023-04-06T06:04:43;1.73;;;1.40;;
14817;SDS011;7500;57.698;11.986;2023-04-06T06:07:09;2.13;;;1.33;;
14817;SDS011;7500;57.698;11.986;2023-04-06T06:09:36;2.23;;;1.40;;
14817;SDS011;7500;57.698;11.986;2023-04-06T06:12:02;1.43;;;1.20;;
14817;SDS011;7500;57.698;11.986;2023-04-06T06:14:30;2.53;;;1.50;;
14817;SDS011;7500;57.698;11.986;2023-04-06T06:16:57;1.20;;;1.10;;
14817;SDS011;7500;57.698;11.986;2023-04-06T06:19:24;2.37;;;1.40;;
14817;SDS011;7500;57.698;11.986;2023-04-06T06:21:50;1.43;;;1.10;;
14817;SDS011;7500;57.698;11.986;2023-04-06T06:24:17;1.17;;;1.13;;
14817;SDS011;7500;57.698;11.986;2023-04-06T06:26:43;1.77;;;1.33;;
14817;SDS011;7500;57.698;11.986;2023-04-06T06:29:10;2.00;;;1.23;;
14817;SDS011;7500;57.698;11.986;2023-04-06T06:31:38;3.97;;;1.47;;
14817;SDS011;7500;57.698;11.986;2023-04-06T06:34:04;1.40;;;1.20;;
14817;SDS011;7500;57.698;11.986;2023-04-06T06:36:31;1.57;;;1.20;;
14817;SDS011;7500;57.698;11.986;2023-04-06T06:38:57;1.13;;;1.07;;
14817;SDS011;7500;57.698;11.986;2023-04-06T06:41:25;1.97;;;1.50;;
14817;SDS011;7500;57.698;11.986;2023-04-06T06:43:52;1.50;;;1.40;;
14817;SDS011;7500;57.698;11.986;2023-04-06T06:46:19;2.03;;;1.40;;
14817;SDS011;7500;57.698;11.986;2023-04-06T06:48:47;2.20;;;1.20;;
14817;SDS011;7500;57.698;11.986;2023-04-06T06:51:14;3.10;;;1.70;;
14817;SDS011;7500;57.698;11.986;2023-04-06T06:53:40;2.70;;;1.40;;
14817;SDS011;7500;57.698;11.986;2023-04-06T06:56:07;2.00;;;1.50;;
14817;SDS011;7500;57.698;11.986;2023-04-06T06:58:34;2.07;;;1.40;;
14817;SDS011;7500;57.698;11.986;2023-04-06T07:01:00;6.47;;;1.50;;
14817;SDS011;7500;57.698;11.986;2023-04-06T07:03:27;3.33;;;1.47;;
14817;SDS011;7500;57.698;11.986;2023-04-06T07:05:55;3.20;;;1.33;;
14817;SDS011;7500;57.698;11.986;2023-04-06T07:08:21;3.67;;;1.50;;
14817;SDS011;7500;57.698;11.986;2023-04-06T07:10:49;1.70;;;1.40;;
14817;SDS011;7500;57.698;11.986;2023-04-06T07:13:17;2.43;;;1.40;;
14817;SDS011;7500;57.698;11.986;2023-04-06T07:15:47;1.43;;;1.23;;
14817;SDS011;7500;57.698;11.986;2023-04-06T07:18:13;2.97;;;1.60;;
14817;SDS011;7500;57.698;11.986;2023-04-06T07:20:40;3.87;;;1.57;;
14817;SDS011;7500;57.698;11.986;2023-04-06T07:23:08;2.00;;;1.40;;
14817;SDS011;7500;57.698;11.986;2023-04-06T07:25:35;8.37;;;1.80;;
14817;SDS011;7500;57.698;11.986;2023-04-06T07:28:01;4.17;;;1.43;;
14817;SDS011;7500;57.698;11.986;2023-04-06T07:30:28;5.40;;;1.73;;
14817;SDS011;7500;57.698;11.986;2023-04-06T07:32:55;3.43;;;1.70;;
14817;SDS011;7500;57.698;11.986;2023-04-06T07:35:22;1.47;;;1.37;;
14817;SDS011;7500;57.698;11.986;2023-04-06T07:37:49;6.07;;;1.77;;
14817;SDS011;7500;57.698;11.986;2023-04-06T07:40:17;1.63;;;1.40;;
14817;SDS011;7500;57.698;11.986;2023-04-06T07:42:44;2.67;;;1.73;;
14817;SDS011;7500;57.698;11.986;2023-04-06T07:45:11;4.27;;;1.47;;
14817;SDS011;7500;57.698;11.986;2023-04-06T07:47:38;3.77;;;1.67;;
14817;SDS011;7500;57.698;11.986;2023-04-06T07:50:05;1.90;;;1.73;;
14817;SDS011;7500;57.698;11.986;2023-04-06T07:52:31;3.67;;;1.23;;
14817;SDS011;7500;57.698;11.986;2023-04-06T07:54:58;1.83;;;1.43;;
14817;SDS011;7500;57.698;11.986;2023-04-06T07:57:26;2.67;;;1.20;;
14817;SDS011;7500;57.698;11.986;2023-04-06T07:59:53;1.57;;;1.33;;
14817;SDS011;7500;57.698;11.986;2023-04-06T08:02:19;4.87;;;1.90;;
14817;SDS011;7500;57.698;11.986;2023-04-06T08:04:46;2.20;;;1.40;;
14817;SDS011;7500;57.698;11.986;2023-04-06T08:07:12;4.37;;;1.40;;
14817;SDS011;7500;57.698;11.986;2023-04-06T08:09:39;3.10;;;1.60;;
14817;SDS011;7500;57.698;11.986;2023-04-06T08:12:06;2.50;;;1.40;;
14817;SDS011;7500;57.698;11.986;2023-04-06T08:17:01;3.83;;;1.40;;
14817;SDS011;7500;57.698;11.986;2023-04-06T08:19:28;2.37;;;1.40;;
14817;SDS011;7500;57.698;11.986;2023-04-06T08:21:54;3.80;;;1.40;;
14817;SDS011;7500;57.698;11.986;2023-04-06T08:24:21;2.30;;;1.53;;
14817;SDS011;7500;57.698;11.986;2023-04-06T08:26:48;5.17;;;1.80;;
14817;SDS011;7500;57.698;11.986;2023-04-06T08:29:15;2.67;;;1.80;;
14817;SDS011;7500;57.698;11.986;2023-04-06T08:31:42;2.10;;;1.50;;
14817;SDS011;7500;57.698;11.986;2023-04-06T08:34:10;2.87;;;1.60;;
14817;SDS011;7500;57.698;11.986;2023-04-06T08:36:36;2.80;;;1.30;;
14817;SDS011;7500;57.698;11.986;2023-04-06T08:39:03;9.07;;;2.40;;
14817;SDS011;7500;57.698;11.986;2023-04-06T08:41:29;1.73;;;1.40;;
14817;SDS011;7500;57.698;11.986;2023-04-06T08:43:58;2.93;;;1.43;;
14817;SDS011;7500;57.698;11.986;2023-04-06T08:46:25;2.03;;;1.53;;
14817;SDS011;7500;57.698;11.986;2023-04-06T08:48:54;3.80;;;2.00;;
14817;SDS011;7500;57.698;11.986;2023-04-06T08:51:23;3.33;;;1.77;;
14817;SDS011;7500;57.698;11.986;2023-04-06T08:53:50;4.20;;;1.63;;
14817;SDS011;7500;57.698;11.986;2023-04-06T08:56:19;6.10;;;1.87;;
14817;SDS011;7500;57.698;11.986;2023-04-06T08:58:46;2.43;;;1.50;;
14817;SDS011;7500;57.698;11.986;2023-04-06T09:01:13;3.57;;;1.67;;
14817;SDS011;7500;57.698;11.986;2023-04-06T09:03:40;5.43;;;1.77;;
14817;SDS011;7500;57.698;11.986;2023-04-06T09:06:08;4.23;;;1.80;;
14817;SDS011;7500;57.698;11.986;2023-04-06T09:08:37;5.07;;;2.00;;
14817;SDS011;7500;57.698;11.986;2023-04-06T09:11:04;4.47;;;2.10;;
14817;SDS011;7500;57.698;11.986;2023-04-06T09:13:31;3.77;;;2.20;;
14817;SDS011;7500;57.698;11.986;2023-04-06T09:15:58;7.23;;;2.17;;
14817;SDS011;7500;57.698;11.986;2023-04-06T09:18:27;3.50;;;2.20;;
14817;SDS011;7500;57.698;11.986;2023-04-06T09:20:56;2.90;;;1.87;;
14817;SDS011;7500;57.698;11.986;2023-04-06T09:23:23;2.70;;;2.07;;
14817;SDS011;7500;57.698;11.986;2023-04-06T09:25:51;5.77;;;3.07;;
14817;SDS011;7500;57.698;11.986;2023-04-06T09:28:17;4.30;;;2.30;;
14817;SDS011;7500;57.698;11.986;2023-04-06T09:30:47;4.17;;;2.10;;
14817;SDS011;7500;57.698;11.986;2023-04-06T09:33:13;5.37;;;2.17;;
14817;SDS011;7500;57.698;11.986;2023-04-06T09:35:49;3.03;;;2.37;;
14817;SDS011;7500;57.698;11.986;2023-04-06T09:38:15;3.00;;;2.40;;
14817;SDS011;7500;57.698;11.986;2023-04-06T09:40:47;2.90;;;2.10;;
14817;SDS011;7500;57.698;11.986;2023-04-06T09:43:24;2.90;;;2.50;;
14817;SDS011;7500;57.698;11.986;2023-04-06T09:45:51;4.77;;;2.83;;
14817;SDS011;7500;57.698;11.986;2023-04-06T09:48:18;4.90;;;2.47;;
14817;SDS011;7500;57.698;11.986;2023-04-06T09:50:46;3.47;;;2.53;;
14817;SDS011;7500;57.698;11.986;2023-04-06T09:53:13;4.17;;;2.90;;
14817;SDS011;7500;57.698;11.986;2023-04-06T09:55:40;3.70;;;3.10;;
14817;SDS011;7500;57.698;11.986;2023-04-06T09:58:09;6.83;;;3.03;;
14817;SDS011;7500;57.698;11.986;2023-04-06T10:00:42;3.97;;;2.60;;
14817;SDS011;7500;57.698;11.986;2023-04-06T10:03:11;4.23;;;2.80;;
14817;SDS011;7500;57.698;11.986;2023-04-06T10:05:42;6.23;;;2.93;;
14817;SDS011;7500;57.698;11.986;2023-04-06T10:08:10;6.20;;;2.93;;
14817;SDS011;7500;57.698;11.986;2023-04-06T10:10:37;5.70;;;3.00;;
14817;SDS011;7500;57.698;11.986;2023-04-06T10:13:04;5.50;;;2.93;;
14817;SDS011;7500;57.698;11.986;2023-04-06T10:15:31;5.37;;;2.97;;
14817;SDS011;7500;57.698;11.986;2023-04-06T10:17:59;6.00;;;3.33;;
14817;SDS011;7500;57.698;11.986;2023-04-06T10:20:27;8.20;;;3.53;;
14817;SDS011;7500;57.698;11.986;2023-04-06T10:22:56;5.53;;;3.50;;
14817;SDS011;7500;57.698;11.986;2023-04-06T10:25:28;5.70;;;3.70;;
14817;SDS011;7500;57.698;11.986;2023-04-06T10:27:59;6.57;;;3.67;;
14817;SDS011;7500;57.698;11.986;2023-04-06T10:30:25;6.10;;;3.50;;
14817;SDS011;7500;57.698;11.986;2023-04-06T10:32:52;7.27;;;4.17;;
14817;SDS011;7500;57.698;11.986;2023-04-06T10:35:20;5.63;;;5.03;;
14817;SDS011;7500;57.698;11.986;2023-04-06T10:37:49;6.03;;;4.47;;
14817;SDS011;7500;57.698;11.986;2023-04-06T10:40:19;8.13;;;5.03;;
14817;SDS011;7500;57.698;11.986;2023-04-06T10:42:45;7.20;;;4.80;;
14817;SDS011;7500;57.698;11.986;2023-04-06T10:45:18;8.00;;;5.63;;
14817;SDS011;7500;57.698;11.986;2023-04-06T10:47:45;9.67;;;5.77;;
14817;SDS011;7500;57.698;11.986;2023-04-06T10:50:12;9.97;;;6.07;;
14817;SDS011;7500;57.698;11.986;2023-04-06T10:52:42;11.57;;;6.23;;
14817;SDS011;7500;57.698;11.986;2023-04-06T10:55:09;14.00;;;7.10;;
14817;SDS011;7500;57.698;11.986;2023-04-06T10:57:37;9.93;;;6.70;;
14817;SDS011;7500;57.698;11.986;2023-04-06T11:00:04;11.57;;;6.93;;
14817;SDS011;7500;57.698;11.986;2023-04-06T11:02:30;12.17;;;6.60;;
14817;SDS011;7500;57.698;11.986;2023-04-06T11:04:57;12.17;;;6.83;;
14817;SDS011;7500;57.698;11.986;2023-04-06T11:07:24;10.17;;;6.40;;
14817;SDS011;7500;57.698;11.986;2023-04-06T11:09:53;10.30;;;6.87;;
14817;SDS011;7500;57.698;11.986;2023-04-06T11:12:20;9.53;;;6.13;;
14817;SDS011;7500;57.698;11.986;2023-04-06T11:14:52;6.97;;;5.33;;
14817;SDS011;7500;57.698;11.986;2023-04-06T11:17:24;6.63;;;5.73;;
14817;SDS011;7500;57.698;11.986;2023-04-06T11:19:51;11.50;;;6.03;;
14817;SDS011;7500;57.698;11.986;2023-04-06T11:22:19;12.73;;;5.73;;
14817;SDS011;7500;57.698;11.986;2023-04-06T11:24:46;9.27;;;4.47;;
14817;SDS011;7500;57.698;11.986;2023-04-06T11:27:15;12.57;;;4.77;;
14817;SDS011;7500;57.698;11.986;2023-04-06T11:29:42;7.13;;;3.67;;
14817;SDS011;7500;57.698;11.986;2023-04-06T11:32:08;7.70;;;3.70;;
14817;SDS011;7500;57.698;11.986;2023-04-06T11:34:36;5.43;;;3.80;;
14817;SDS011;7500;57.698;11.986;2023-04-06T11:37:04;8.03;;;3.97;;
14817;SDS011;7500;57.698;11.986;2023-04-06T11:39:31;6.23;;;3.80;;
14817;SDS011;7500;57.698;11.986;2023-04-06T11:41:57;10.67;;;4.30;;
14817;SDS011;7500;57.698;11.986;2023-04-06T11:44:33;11.33;;;4.90;;
14817;SDS011;7500;57.698;11.986;2023-04-06T11:47:00;7.23;;;3.20;;
14817;SDS011;7500;57.698;11.986;2023-04-06T11:49:27;5.63;;;3.30;;
14817;SDS011;7500;57.698;11.986;2023-04-06T11:51:54;6.43;;;3.53;;
14817;SDS011;7500;57.698;11.986;2023-04-06T11:54:29;7.63;;;4.17;;
14817;SDS011;7500;57.698;11.986;2023-04-06T11:56:55;4.80;;;3.10;;
14817;SDS011;7500;57.698;11.986;2023-04-06T11:59:22;4.27;;;2.83;;
14817;SDS011;7500;57.698;11.986;2023-04-06T12:01:50;5.37;;;2.77;;
14817;SDS011;7500;57.698;11.986;2023-04-06T12:04:17;3.37;;;2.47;;
14817;SDS011;7500;57.698;11.986;2023-04-06T12:06:44;4.50;;;3.23;;
14817;SDS011;7500;57.698;11.986;2023-04-06T12:09:10;7.93;;;3.03;;
14817;SDS011;7500;57.698;11.986;2023-04-06T12:11:37;4.60;;;2.87;;
14817;SDS011;7500;57.698;11.986;2023-04-06T12:14:04;4.63;;;2.73;;
14817;SDS011;7500;57.698;11.986;2023-04-06T12:16:32;3.57;;;2.70;;
14817;SDS011;7500;57.698;11.986;2023-04-06T12:19:00;4.77;;;2.50;;
14817;SDS011;7500;57.698;11.986;2023-04-06T12:21:27;9.10;;;2.70;;
14817;SDS011;7500;57.698;11.986;2023-04-06T12:23:56;9.83;;;2.60;;
14817;SDS011;7500;57.698;11.986;2023-04-06T12:26:23;3.87;;;2.20;;
14817;SDS011;7500;57.698;11.986;2023-04-06T12:28:49;5.83;;;2.63;;
14817;SDS011;7500;57.698;11.986;2023-04-06T12:31:16;3.43;;;2.10;;
14817;SDS011;7500;57.698;11.986;2023-04-06T12:33:43;4.70;;;2.20;;
14817;SDS011;7500;57.698;11.986;2023-04-06T12:36:13;4.13;;;2.20;;
14817;SDS011;7500;57.698;11.986;2023-04-06T12:38:40;4.43;;;2.33;;
14817;SDS011;7500;57.698;11.986;2023-04-06T12:41:09;3.30;;;2.40;;
14817;SDS011;7500;57.698;11.986;2023-04-06T12:43:36;4.57;;;2.40;;
14817;SDS011;7500;57.698;11.986;2023-04-06T12:46:03;4.37;;;2.50;;
14817;SDS011;7500;57.698;11.986;2023-04-06T12:48:29;5.10;;;2.53;;
14817;SDS011;7500;57.698;11.986;2023-04-06T12:50:57;4.20;;;2.60;;
14817;SDS011;7500;57.698;11.986;2023-04-06T12:53:26;7.40;;;3.03;;
14817;SDS011;7500;57.698;11.986;2023-04-06T12:55:53;4.10;;;2.47;;
14817;SDS011;7500;57.698;11.986;2023-04-06T12:58:19;4.10;;;2.53;;
14817;SDS011;7500;57.698;11.986;2023-04-06T13:00:46;5.07;;;2.20;;
14817;SDS011;7500;57.698;11.986;2023-04-06T13:03:13;6.63;;;2.00;;
14817;SDS011;7500;57.698;11.986;2023-04-06T13:05:43;4.47;;;1.33;;
14817;SDS011;7500;57.698;11.986;2023-04-06T13:08:09;2.83;;;1.50;;
14817;SDS011;7500;57.698;11.986;2023-04-06T13:10:37;2.27;;;1.50;;
14817;SDS011;7500;57.698;11.986;2023-04-06T13:13:04;5.10;;;1.77;;
14817;SDS011;7500;57.698;11.986;2023-04-06T13:15:31;4.80;;;1.93;;
14817;SDS011;7500;57.698;11.986;2023-04-06T13:18:00;7.70;;;2.13;;
14817;SDS011;7500;57.698;11.986;2023-04-06T13:20:26;2.23;;;1.80;;
14817;SDS011;7500;57.698;11.986;2023-04-06T13:22:53;3.67;;;1.60;;
14817;SDS011;7500;57.698;11.986;2023-04-06T13:25:19;3.10;;;1.90;;
14817;SDS011;7500;57.698;11.986;2023-04-06T13:27:47;5.43;;;1.83;;
14817;SDS011;7500;57.698;11.986;2023-04-06T13:30:15;3.87;;;1.40;;
14817;SDS011;7500;57.698;11.986;2023-04-06T13:32:41;4.50;;;1.40;;
14817;SDS011;7500;57.698;11.986;2023-04-06T13:35:08;5.00;;;1.50;;
14817;SDS011;7500;57.698;11.986;2023-04-06T13:37:35;2.77;;;1.37;;
14817;SDS011;7500;57.698;11.986;2023-04-06T13:40:01;6.93;;;1.73;;
14817;SDS011;7500;57.698;11.986;2023-04-06T13:42:29;4.30;;;1.27;;
14817;SDS011;7500;57.698;11.986;2023-04-06T13:44:57;1.53;;;1.03;;
14817;SDS011;7500;57.698;11.986;2023-04-06T13:47:24;3.47;;;1.33;;
14817;SDS011;7500;57.698;11.986;2023-04-06T13:49:51;5.83;;;1.40;;
14817;SDS011;7500;57.698;11.986;2023-04-06T13:52:17;1.17;;;1.07;;
14817;SDS011;7500;57.698;11.986;2023-04-06T13:54:44;4.47;;;1.37;;
14817;SDS011;7500;57.698;11.986;2023-04-06T13:57:11;1.53;;;1.20;;
14817;SDS011;7500;57.698;11.986;2023-04-06T13:59:38;3.63;;;1.60;;
14817;SDS011;7500;57.698;11.986;2023-04-06T14:02:06;4.07;;;1.37;;
14817;SDS011;7500;57.698;11.986;2023-04-06T14:04:33;5.37;;;1.40;;
14817;SDS011;7500;57.698;11.986;2023-04-06T14:07:00;2.80;;;1.40;;
14817;SDS011;7500;57.698;11.986;2023-04-06T14:09:27;3.47;;;1.47;;
14817;SDS011;7500;57.698;11.986;2023-04-06T14:11:53;4.00;;;2.20;;
14817;SDS011;7500;57.698;11.986;2023-04-06T14:14:20;3.53;;;1.53;;
14817;SDS011;7500;57.698;11.986;2023-04-06T14:16:47;2.63;;;1.33;;
14817;SDS011;7500;57.698;11.986;2023-04-06T14:19:15;2.63;;;1.50;;
14817;SDS011;7500;57.698;11.986;2023-04-06T14:21:43;4.53;;;1.60;;
14817;SDS011;7500;57.698;11.986;2023-04-06T14:24:10;3.07;;;1.50;;
14817;SDS011;7500;57.698;11.986;2023-04-06T14:26:38;2.77;;;1.73;;
14817;SDS011;7500;57.698;11.986;2023-04-06T14:29:04;2.67;;;1.73;;
14817;SDS011;7500;57.698;11.986;2023-04-06T14:31:31;2.57;;;1.70;;
14817;SDS011;7500;57.698;11.986;2023-04-06T14:34:00;5.73;;;1.80;;
14817;SDS011;7500;57.698;11.986;2023-04-06T14:36:28;3.50;;;1.90;;
14817;SDS011;7500;57.698;11.986;2023-04-06T14:38:56;4.73;;;2.20;;
14817;SDS011;7500;57.698;11.986;2023-04-06T14:41:23;4.30;;;1.90;;
14817;SDS011;7500;57.698;11.986;2023-04-06T14:43:51;3.03;;;2.00;;
14817;SDS011;7500;57.698;11.986;2023-04-06T14:46:18;4.47;;;2.67;;
14817;SDS011;7500;57.698;11.986;2023-04-06T14:48:45;4.70;;;2.80;;
14817;SDS011;7500;57.698;11.986;2023-04-06T14:51:11;6.33;;;2.50;;